Time;durP1;ratioP1;P1;durP2;ratioP2;P2;SDS_P1;SDS_P2;PMS_P1;PMS_P2;Temp;Humidity;BMP_temperature;BMP_pressure;BME280_temperature;BME280_humidity;BME280_pressure;Samples;Min_cycle;Max_cycle;Signal;HPM_P1;HPM_P2
2024/04/09 00:01:43;;;;;;;19.98;13.50;;;;;;;;;;5502154;26;20020;-65
2024/04/09 00:04:10;;;;;;;22.63;13.10;;;;;;;;;;5500466;26;20028;-65
2024/04/09 00:06:38;;;;;;;22.25;12.80;;;;;;;;;;5494927;26;20074;-66
2024/04/09 00:09:05;;;;;;;21.35;13.30;;;;;;;;;;5502073;26;20097;-65
2024/04/09 00:11:33;;;;;;;23.75;13.18;;;;;;;;;;5500305;26;20112;-65
2024/04/09 00:14:04;;;;;;;22.02;12.73;;;;;;;;;;5500050;26;20348;-65
2024/04/09 00:16:33;;;;;;;14.88;12.43;;;;;;;;;;5501953;26;20013;-65
2024/04/09 00:19:00;;;;;;;19.10;12.43;;;;;;;;;;5499297;26;20015;-65
2024/04/09 00:21:29;;;;;;;22.80;13.52;;;;;;;;;;5499213;26;20063;-65
2024/04/09 00:23:56;;;;;;;20.02;12.60;;;;;;;;;;5499779;26;20328;-65
2024/04/09 00:26:24;;;;;;;23.63;13.30;;;;;;;;;;5497745;26;20001;-65
2024/04/09 00:28:51;;;;;;;21.52;12.93;;;;;;;;;;5502069;26;20015;-65
2024/04/09 00:31:21;;;;;;;20.48;11.80;;;;;;;;;;5499293;26;20009;-66
2024/04/09 00:33:49;;;;;;;18.75;12.32;;;;;;;;;;5502771;26;20317;-65
2024/04/09 00:36:16;;;;;;;20.00;12.88;;;;;;;;;;5495548;26;20010;-65
2024/04/09 00:38:46;;;;;;;16.73;11.93;;;;;;;;;;5501379;26;20035;-65
2024/04/09 00:41:15;;;;;;;21.70;12.40;;;;;;;;;;5466190;26;19998;-65
2024/04/09 00:43:42;;;;;;;18.95;13.07;;;;;;;;;;5510458;26;20041;-65
2024/04/09 00:46:11;;;;;;;24.10;15.32;;;;;;;;;;5500100;26;20020;-65
2024/04/09 00:48:39;;;;;;;44.03;18.85;;;;;;;;;;5502939;26;20009;-65
2024/04/09 00:51:07;;;;;;;37.70;22.38;;;;;;;;;;5499113;26;20315;-65
2024/04/09 00:53:35;;;;;;;32.88;19.65;;;;;;;;;;5501133;26;20001;-65
2024/04/09 00:56:05;;;;;;;39.38;22.60;;;;;;;;;;5495392;26;20001;-65
2024/04/09 00:58:34;;;;;;;38.15;26.05;;;;;;;;;;5498399;26;20194;-64
2024/04/09 01:01:04;;;;;;;37.25;24.85;;;;;;;;;;5502134;26;20354;-64
2024/04/09 01:03:31;;;;;;;41.00;24.77;;;;;;;;;;5503861;26;20037;-65
2024/04/09 01:05:59;;;;;;;38.45;25.40;;;;;;;;;;5502921;26;20001;-65
2024/04/09 01:08:27;;;;;;;39.72;27.30;;;;;;;;;;5505122;26;20097;-65
2024/04/09 01:10:54;;;;;;;41.42;27.35;;;;;;;;;;5505757;26;20061;-65
2024/04/09 01:13:22;;;;;;;42.75;25.98;;;;;;;;;;5500864;26;20112;-64
2024/04/09 01:15:49;;;;;;;45.25;29.40;;;;;;;;;;5504374;26;20493;-64
2024/04/09 01:18:17;;;;;;;56.10;34.47;;;;;;;;;;5501395;26;20034;-64
2024/04/09 01:20:44;;;;;;;49.92;31.35;;;;;;;;;;5474280;26;20030;-65
2024/04/09 01:23:12;;;;;;;53.63;33.10;;;;;;;;;;5505052;26;20030;-64
2024/04/09 01:25:40;;;;;;;54.90;34.70;;;;;;;;;;5508096;26;20363;-64
2024/04/09 01:28:08;;;;;;;54.95;33.97;;;;;;;;;;5504843;26;20037;-64
2024/04/09 01:30:37;;;;;;;50.47;33.05;;;;;;;;;;5508872;26;20041;-65
2024/04/09 01:33:05;;;;;;;73.35;40.22;;;;;;;;;;5489760;26;20104;-64
2024/04/09 01:35:32;;;;;;;67.75;40.03;;;;;;;;;;5496325;26;20360;-64
2024/04/09 01:38:00;;;;;;;68.18;39.33;;;;;;;;;;5495766;26;20016;-64
2024/04/09 01:40:27;;;;;;;48.60;36.10;;;;;;;;;;5494087;26;20002;-65
2024/04/09 01:42:54;;;;;;;79.53;42.80;;;;;;;;;;5513438;26;20362;-64
2024/04/09 01:45:22;;;;;;;63.88;40.88;;;;;;;;;;5512660;26;20025;-64
2024/04/09 01:47:50;;;;;;;77.10;41.30;;;;;;;;;;5511258;26;20376;-64
2024/04/09 01:50:18;;;;;;;88.93;44.22;;;;;;;;;;5507291;26;20148;-64
2024/04/09 01:52:48;;;;;;;58.40;38.17;;;;;;;;;;5491470;26;20349;-65
2024/04/09 01:55:17;;;;;;;66.13;38.47;;;;;;;;;;5506445;26;20035;-65
2024/04/09 01:57:44;;;;;;;94.93;45.88;;;;;;;;;;5503042;26;20001;-64
2024/04/09 02:00:12;;;;;;;56.60;37.85;;;;;;;;;;5469221;26;20108;-65
2024/04/09 02:02:42;;;;;;;70.57;40.67;;;;;;;;;;5504239;26;19998;-64
2024/04/09 02:05:12;;;;;;;61.65;38.55;;;;;;;;;;5502051;26;20009;-64
2024/04/09 02:07:39;;;;;;;70.53;41.50;;;;;;;;;;5500268;26;20001;-64
2024/04/09 02:10:09;;;;;;;60.28;41.15;;;;;;;;;;5494674;26;20001;-64
2024/04/09 02:12:36;;;;;;;71.35;41.83;;;;;;;;;;5498682;26;20012;-65
2024/04/09 02:15:04;;;;;;;66.97;42.22;;;;;;;;;;5499432;26;20455;-65
2024/04/09 02:17:31;;;;;;;65.38;40.42;;;;;;;;;;5499250;26;20483;-64
2024/04/09 02:19:59;;;;;;;65.30;40.20;;;;;;;;;;5497273;26;20089;-64
2024/04/09 02:22:29;;;;;;;66.30;42.55;;;;;;;;;;5497713;26;20108;-64
2024/04/09 02:24:56;;;;;;;63.45;42.83;;;;;;;;;;5498537;26;20085;-65
2024/04/09 02:27:24;;;;;;;62.47;40.25;;;;;;;;;;5499196;26;20012;-64
2024/04/09 02:29:52;;;;;;;54.72;38.33;;;;;;;;;;5467247;26;20003;-64
2024/04/09 02:32:19;;;;;;;57.78;39.35;;;;;;;;;;5498101;26;19998;-64
2024/04/09 02:34:47;;;;;;;52.72;34.70;;;;;;;;;;5497487;26;20029;-65
2024/04/09 02:37:14;;;;;;;38.42;27.58;;;;;;;;;;5501475;26;20074;-64
2024/04/09 02:39:42;;;;;;;34.40;26.02;;;;;;;;;;5498454;26;20301;-64
2024/04/09 02:42:13;;;;;;;34.92;23.83;;;;;;;;;;5498683;26;20609;-64
2024/04/09 02:44:40;;;;;;;30.20;21.45;;;;;;;;;;5500786;26;20023;-64
2024/04/09 02:47:08;;;;;;;36.25;21.23;;;;;;;;;;5495798;26;20002;-64
2024/04/09 02:49:35;;;;;;;24.60;17.13;;;;;;;;;;5497984;26;20013;-64
2024/04/09 02:52:03;;;;;;;26.13;18.20;;;;;;;;;;5475965;26;20001;-64
2024/04/09 02:54:31;;;;;;;27.33;18.25;;;;;;;;;;5501069;26;20015;-64
2024/04/09 02:56:58;;;;;;;23.02;16.90;;;;;;;;;;5506328;26;20002;-64
2024/04/09 02:59:26;;;;;;;21.15;14.23;;;;;;;;;;5511840;26;20034;-64
2024/04/09 03:01:53;;;;;;;24.60;15.80;;;;;;;;;;5498542;26;20336;-64
2024/04/09 03:04:21;;;;;;;21.92;12.93;;;;;;;;;;5510681;25;20033;-64
2024/04/09 03:06:49;;;;;;;23.35;16.17;;;;;;;;;;5499788;26;20001;-64
2024/04/09 03:09:16;;;;;;;21.38;14.45;;;;;;;;;;5499729;26;20005;-64
2024/04/09 03:11:43;;;;;;;20.85;12.60;;;;;;;;;;5504438;26;20041;-64
2024/04/09 03:14:11;;;;;;;17.92;11.43;;;;;;;;;;5511356;26;20049;-64
2024/04/09 03:16:39;;;;;;;15.73;11.13;;;;;;;;;;5504310;26;20323;-64
2024/04/09 03:19:07;;;;;;;20.30;11.90;;;;;;;;;;5506475;26;20025;-65
2024/04/09 03:21:34;;;;;;;22.55;11.80;;;;;;;;;;5509830;26;20021;-64
2024/04/09 03:24:02;;;;;;;17.83;10.35;;;;;;;;;;5508785;26;20339;-64
2024/04/09 03:26:29;;;;;;;17.60;8.85;;;;;;;;;;5476082;26;20013;-64
2024/04/09 03:28:57;;;;;;;16.20;8.07;;;;;;;;;;5509854;26;20029;-64
2024/04/09 03:31:25;;;;;;;18.67;8.90;;;;;;;;;;5509412;26;20037;-64
2024/04/09 03:33:53;;;;;;;20.05;9.75;;;;;;;;;;5508440;26;20037;-64
2024/04/09 03:36:20;;;;;;;16.35;8.82;;;;;;;;;;5508606;26;20046;-64
2024/04/09 03:38:48;;;;;;;16.77;10.75;;;;;;;;;;5510313;26;20012;-64
2024/04/09 03:41:15;;;;;;;24.92;11.88;;;;;;;;;;5506196;26;20111;-64
2024/04/09 03:43:43;;;;;;;19.23;11.90;;;;;;;;;;5507180;26;20015;-64
2024/04/09 03:46:11;;;;;;;17.83;10.65;;;;;;;;;;5502685;26;20021;-64
2024/04/09 03:48:41;;;;;;;17.48;12.50;;;;;;;;;;5504506;26;20040;-64
2024/04/09 03:51:08;;;;;;;21.75;11.75;;;;;;;;;;5500399;26;20454;-64
2024/04/09 03:53:37;;;;;;;18.98;10.82;;;;;;;;;;5500924;26;20016;-65
2024/04/09 03:56:06;;;;;;;18.98;10.20;;;;;;;;;;5502970;26;20557;-65
2024/04/09 03:58:35;;;;;;;18.98;10.38;;;;;;;;;;5503428;26;20343;-64
2024/04/09 04:01:03;;;;;;;18.95;10.25;;;;;;;;;;5502036;26;20042;-64
2024/04/09 04:03:31;;;;;;;15.93;10.48;;;;;;;;;;5499992;25;20034;-64
2024/04/09 04:06:01;;;;;;;19.58;11.55;;;;;;;;;;5506870;26;20336;-64
2024/04/09 04:08:30;;;;;;;17.25;11.43;;;;;;;;;;5500290;26;20022;-64
2024/04/09 04:10:59;;;;;;;23.70;13.57;;;;;;;;;;5504079;26;20001;-64
2024/04/09 04:13:28;;;;;;;21.67;14.95;;;;;;;;;;5499402;26;20015;-64
2024/04/09 04:16:04;;;;;;;20.88;13.90;;;;;;;;;;5497397;26;20332;-64
2024/04/09 04:18:39;;;;;;;22.80;13.23;;;;;;;;;;5496654;26;20006;-64
2024/04/09 04:21:08;;;;;;;17.17;10.90;;;;;;;;;;5494240;26;20037;-64
2024/04/09 04:23:36;;;;;;;20.60;11.80;;;;;;;;;;5499801;26;20013;-64
2024/04/09 04:26:04;;;;;;;17.67;10.98;;;;;;;;;;5468184;26;19997;-64
2024/04/09 04:28:32;;;;;;;21.23;11.32;;;;;;;;;;5502103;26;20010;-64
2024/04/09 04:31:00;;;;;;;15.68;9.15;;;;;;;;;;5498934;26;20032;-64
2024/04/09 04:33:28;;;;;;;16.75;9.75;;;;;;;;;;5496343;26;20009;-64
2024/04/09 04:35:55;;;;;;;13.32;7.78;;;;;;;;;;5496835;26;20032;-64
2024/04/09 04:38:23;;;;;;;17.25;7.82;;;;;;;;;;5500772;26;20017;-64
2024/04/09 04:40:50;;;;;;;12.32;6.57;;;;;;;;;;5501059;26;20028;-64
2024/04/09 04:43:18;;;;;;;15.77;6.53;;;;;;;;;;5497333;26;20013;-64
2024/04/09 04:45:47;;;;;;;15.85;4.90;;;;;;;;;;5501374;26;20001;-64
2024/04/09 04:48:14;;;;;;;11.35;3.88;;;;;;;;;;5501925;26;20005;-64
2024/04/09 04:50:42;;;;;;;7.88;3.10;;;;;;;;;;5502267;26;20353;-64
2024/04/09 04:53:09;;;;;;;10.38;2.85;;;;;;;;;;5500546;26;20009;-64
2024/04/09 04:55:37;;;;;;;16.50;3.28;;;;;;;;;;5463080;26;20337;-64
2024/04/09 04:58:05;;;;;;;8.65;2.97;;;;;;;;;;5496351;26;20006;-64
2024/04/09 05:00:33;;;;;;;7.80;2.92;;;;;;;;;;5498348;26;20001;-64
2024/04/09 05:03:00;;;;;;;12.65;2.85;;;;;;;;;;5497580;26;20010;-64
2024/04/09 05:05:29;;;;;;;16.20;3.53;;;;;;;;;;5500347;26;20031;-64
2024/04/09 05:07:57;;;;;;;14.85;3.45;;;;;;;;;;5501680;26;20335;-64
2024/04/09 05:10:25;;;;;;;13.27;3.08;;;;;;;;;;5498618;26;20012;-64
2024/04/09 05:12:53;;;;;;;14.05;3.72;;;;;;;;;;5504850;26;20041;-64
2024/04/09 05:15:21;;;;;;;15.63;3.58;;;;;;;;;;5496483;26;20044;-62
2024/04/09 05:17:48;;;;;;;18.98;4.68;;;;;;;;;;5503908;26;20023;-64
2024/04/09 05:20:16;;;;;;;16.40;3.58;;;;;;;;;;5505659;26;20129;-64
2024/04/09 05:22:44;;;;;;;16.35;4.15;;;;;;;;;;5504609;26;20016;-64
2024/04/09 05:25:12;;;;;;;9.60;3.40;;;;;;;;;;5506095;26;20474;-64
2024/04/09 05:27:40;;;;;;;18.60;3.63;;;;;;;;;;5506647;26;20002;-64
2024/04/09 05:30:10;;;;;;;14.48;3.45;;;;;;;;;;5507255;26;20045;-72
2024/04/09 05:32:39;;;;;;;16.42;3.20;;;;;;;;;;5505891;26;20025;-64
2024/04/09 05:35:08;;;;;;;15.85;3.47;;;;;;;;;;5502098;26;20436;-65
2024/04/09 05:37:35;;;;;;;17.58;4.65;;;;;;;;;;5503233;26;20357;-65
2024/04/09 05:40:08;;;;;;;13.75;3.78;;;;;;;;;;5503890;26;20473;-65
2024/04/09 05:42:37;;;;;;;9.77;2.40;;;;;;;;;;5502411;26;20027;-66
2024/04/09 05:45:08;;;;;;;11.73;2.33;;;;;;;;;;5509759;26;20049;-66
2024/04/09 05:47:36;;;;;;;13.10;2.85;;;;;;;;;;5509543;26;20029;-66
2024/04/09 05:50:04;;;;;;;14.73;2.55;;;;;;;;;;5506296;26;20034;-66
2024/04/09 05:52:32;;;;;;;15.98;2.70;;;;;;;;;;5499542;26;20010;-66
2024/04/09 05:54:59;;;;;;;10.82;2.25;;;;;;;;;;5491563;26;20036;-66
2024/04/09 05:57:27;;;;;;;15.75;2.10;;;;;;;;;;5467934;26;20020;-65
2024/04/09 05:59:54;;;;;;;11.18;2.10;;;;;;;;;;5493600;26;20041;-66
2024/04/09 06:02:23;;;;;;;10.43;1.85;;;;;;;;;;5493652;26;20041;-65
2024/04/09 06:04:51;;;;;;;10.95;3.10;;;;;;;;;;5505864;26;20553;-66
2024/04/09 06:07:19;;;;;;;12.10;2.03;;;;;;;;;;5496975;26;20028;-67
2024/04/09 06:09:48;;;;;;;11.50;1.75;;;;;;;;;;5501627;26;20364;-66
2024/04/09 06:12:15;;;;;;;11.02;2.15;;;;;;;;;;5498785;26;20001;-66
2024/04/09 06:14:43;;;;;;;25.38;3.83;;;;;;;;;;5500270;26;20154;-66
2024/04/09 06:17:11;;;;;;;23.13;3.03;;;;;;;;;;5466241;26;20326;-66
2024/04/09 06:19:38;;;;;;;12.35;2.03;;;;;;;;;;5503085;26;20020;-66
2024/04/09 06:22:06;;;;;;;10.60;2.55;;;;;;;;;;5504071;26;20479;-66
2024/04/09 06:24:33;;;;;;;13.02;2.30;;;;;;;;;;5501753;26;20045;-65
2024/04/09 06:27:01;;;;;;;11.65;2.10;;;;;;;;;;5495948;26;20160;-65
2024/04/09 06:29:30;;;;;;;16.48;2.67;;;;;;;;;;5500512;26;20037;-65
2024/04/09 06:31:57;;;;;;;11.13;2.30;;;;;;;;;;5503976;26;20050;-65
2024/04/09 06:34:25;;;;;;;13.80;2.50;;;;;;;;;;5505362;26;20037;-65
2024/04/09 06:36:53;;;;;;;13.18;2.05;;;;;;;;;;5496712;26;20145;-65
2024/04/09 06:39:20;;;;;;;14.35;2.92;;;;;;;;;;5496139;26;20029;-65
2024/04/09 06:41:48;;;;;;;25.95;3.70;;;;;;;;;;5500128;26;20054;-66
2024/04/09 06:44:15;;;;;;;11.45;1.92;;;;;;;;;;5501540;26;20049;-65
2024/04/09 06:46:43;;;;;;;13.05;2.10;;;;;;;;;;5506463;26;20030;-66
2024/04/09 06:49:11;;;;;;;16.20;2.72;;;;;;;;;;5476798;26;20009;-66
2024/04/09 06:51:38;;;;;;;17.95;2.78;;;;;;;;;;5508391;26;20024;-66
2024/04/09 06:54:06;;;;;;;15.75;2.58;;;;;;;;;;5502175;26;20037;-66
2024/04/09 06:56:33;;;;;;;20.25;2.97;;;;;;;;;;5498554;26;20002;-67
2024/04/09 06:59:01;;;;;;;14.93;3.03;;;;;;;;;;5492660;26;20002;-66
2024/04/09 07:01:28;;;;;;;22.73;2.78;;;;;;;;;;5488274;26;20013;-66
2024/04/09 07:03:56;;;;;;;14.50;2.65;;;;;;;;;;5486455;26;20082;-66
2024/04/09 07:06:24;;;;;;;18.00;2.78;;;;;;;;;;5458796;26;20089;-66
2024/04/09 07:08:51;;;;;;;14.25;2.88;;;;;;;;;;5499319;26;20001;-66
2024/04/09 07:11:21;;;;;;;22.23;3.92;;;;;;;;;;5453282;26;20002;-66
2024/04/09 07:13:49;;;;;;;14.43;3.30;;;;;;;;;;5498195;26;20049;-66
2024/04/09 07:16:16;;;;;;;18.98;2.58;;;;;;;;;;5498718;26;20426;-66
2024/04/09 07:18:44;;;;;;;13.77;2.53;;;;;;;;;;5505395;26;20049;-66
2024/04/09 07:21:11;;;;;;;17.45;2.85;;;;;;;;;;5506859;26;20088;-66
2024/04/09 07:23:38;;;;;;;20.02;3.75;;;;;;;;;;5500552;26;20038;-66
2024/04/09 07:26:06;;;;;;;17.73;4.43;;;;;;;;;;5466720;26;20035;-66
2024/04/09 07:28:33;;;;;;;14.40;3.90;;;;;;;;;;5479277;26;20044;-66
2024/04/09 07:31:08;;;;;;;15.65;3.72;;;;;;;;;;5507197;26;20041;-65
2024/04/09 07:33:35;;;;;;;19.02;3.63;;;;;;;;;;5511725;26;20029;-66
2024/04/09 07:36:04;;;;;;;17.55;3.00;;;;;;;;;;5496885;26;20009;-66
2024/04/09 07:38:31;;;;;;;20.90;3.65;;;;;;;;;;5500385;26;20060;-66
2024/04/09 07:40:59;;;;;;;14.65;3.90;;;;;;;;;;5509221;26;20104;-66
2024/04/09 07:43:28;;;;;;;15.70;3.83;;;;;;;;;;5503477;26;20477;-66
2024/04/09 07:45:56;;;;;;;20.83;4.65;;;;;;;;;;5502921;26;20386;-66
2024/04/09 07:48:24;;;;;;;15.13;4.05;;;;;;;;;;5506932;26;20029;-66
2024/04/09 07:50:52;;;;;;;19.00;3.83;;;;;;;;;;5510119;26;20034;-66
2024/04/09 07:53:20;;;;;;;13.35;3.40;;;;;;;;;;5507680;26;20033;-66
2024/04/09 07:55:48;;;;;;;15.88;4.28;;;;;;;;;;5500272;26;20073;-66
2024/04/09 07:58:15;;;;;;;15.63;3.63;;;;;;;;;;5501882;26;20037;-66
2024/04/09 08:00:44;;;;;;;12.30;3.35;;;;;;;;;;5496311;26;20029;-66
2024/04/09 08:03:11;;;;;;;19.02;3.28;;;;;;;;;;5499994;26;20001;-66
2024/04/09 08:05:39;;;;;;;19.67;4.15;;;;;;;;;;5502986;26;20112;-66
2024/04/09 08:08:07;;;;;;;11.30;3.45;;;;;;;;;;5508345;26;20347;-66
2024/04/09 08:10:35;;;;;;;15.27;4.47;;;;;;;;;;5508911;25;20005;-66
2024/04/09 08:13:05;;;;;;;23.70;4.70;;;;;;;;;;5499424;26;20161;-66
2024/04/09 08:15:33;;;;;;;14.93;3.75;;;;;;;;;;5503304;26;20033;-66
2024/04/09 08:18:00;;;;;;;16.25;4.07;;;;;;;;;;5511263;26;20124;-66
2024/04/09 08:20:28;;;;;;;12.50;4.22;;;;;;;;;;5507539;26;20033;-66
2024/04/09 08:22:55;;;;;;;19.80;3.90;;;;;;;;;;5505649;26;20539;-66
2024/04/09 08:25:22;;;;;;;14.23;4.32;;;;;;;;;;5501623;26;20445;-64
2024/04/09 08:27:51;;;;;;;18.48;4.63;;;;;;;;;;5504593;26;20030;-67
2024/04/09 08:30:18;;;;;;;17.05;3.47;;;;;;;;;;5469721;26;20001;-66
2024/04/09 08:32:46;;;;;;;15.38;4.45;;;;;;;;;;5496995;26;20037;-66
2024/04/09 08:35:14;;;;;;;13.18;4.45;;;;;;;;;;5504127;26;20030;-71
2024/04/09 08:37:42;;;;;;;14.57;4.25;;;;;;;;;;5496910;26;20461;-66
2024/04/09 08:40:10;;;;;;;14.23;4.00;;;;;;;;;;5497986;26;20113;-64
2024/04/09 08:42:38;;;;;;;10.93;3.80;;;;;;;;;;5475874;26;20034;-66
2024/04/09 08:45:14;;;;;;;10.88;4.13;;;;;;;;;;5503084;26;20070;-66
2024/04/09 08:47:42;;;;;;;10.05;4.20;;;;;;;;;;5503352;26;20034;-64
2024/04/09 08:50:10;;;;;;;12.63;4.15;;;;;;;;;;5500091;26;20001;-66
2024/04/09 08:52:37;;;;;;;10.77;4.13;;;;;;;;;;5505807;26;20026;-66
2024/04/09 08:55:07;;;;;;;10.40;3.83;;;;;;;;;;5510680;26;20072;-65
2024/04/09 08:57:35;;;;;;;12.73;4.07;;;;;;;;;;5508360;26;20150;-66
2024/04/09 09:00:04;;;;;;;10.40;3.95;;;;;;;;;;5496875;26;20001;-66
2024/04/09 09:02:32;;;;;;;12.82;4.65;;;;;;;;;;5502735;26;20149;-65
2024/04/09 09:05:00;;;;;;;12.27;4.15;;;;;;;;;;5510749;26;20389;-66
2024/04/09 09:07:28;;;;;;;14.88;3.88;;;;;;;;;;5470992;26;20002;-65
2024/04/09 09:10:00;;;;;;;10.40;3.97;;;;;;;;;;5476777;26;20001;-65
2024/04/09 09:12:28;;;;;;;7.47;3.28;;;;;;;;;;5511513;26;21215;-65
2024/04/09 09:15:00;;;;;;;18.50;5.15;;;;;;;;;;5504812;26;20045;-65
2024/04/09 09:17:31;;;;;;;11.38;4.63;;;;;;;;;;5510969;26;20037;-66
2024/04/09 09:20:00;;;;;;;7.68;3.13;;;;;;;;;;5501117;26;20033;-66
2024/04/09 09:22:29;;;;;;;7.95;3.40;;;;;;;;;;5504406;26;20101;-65
2024/04/09 09:24:57;;;;;;;5.43;2.75;;;;;;;;;;5508984;26;20029;-65
2024/04/09 09:27:26;;;;;;;8.40;3.85;;;;;;;;;;5510841;26;20033;-65
2024/04/09 09:29:55;;;;;;;11.27;3.50;;;;;;;;;;5510832;26;21939;-65
2024/04/09 09:32:23;;;;;;;10.32;3.22;;;;;;;;;;5512255;26;20041;-65
2024/04/09 09:34:55;;;;;;;9.48;2.90;;;;;;;;;;5511381;26;20516;-65
2024/04/09 09:37:23;;;;;;;6.93;2.80;;;;;;;;;;5511418;26;20030;-65
2024/04/09 09:39:51;;;;;;;11.25;2.92;;;;;;;;;;5507845;26;20076;-65
2024/04/09 09:42:19;;;;;;;8.30;2.97;;;;;;;;;;5507297;26;20516;-65
2024/04/09 09:44:48;;;;;;;6.75;2.47;;;;;;;;;;5507603;26;20129;-65
2024/04/09 09:47:16;;;;;;;9.95;3.05;;;;;;;;;;5502712;26;20030;-65
2024/04/09 09:49:44;;;;;;;8.15;2.58;;;;;;;;;;5504565;26;20057;-65
2024/04/09 09:52:11;;;;;;;6.18;2.97;;;;;;;;;;5506795;26;20033;-65
2024/04/09 09:54:40;;;;;;;10.15;2.75;;;;;;;;;;5512721;26;21888;-65
2024/04/09 09:57:11;;;;;;;11.93;2.85;;;;;;;;;;5501783;26;20030;-65
2024/04/09 09:59:43;;;;;;;7.13;2.38;;;;;;;;;;5510522;26;20073;-63
2024/04/09 10:02:10;;;;;;;10.20;2.60;;;;;;;;;;5507149;26;20045;-66
2024/04/09 10:04:38;;;;;;;6.72;3.10;;;;;;;;;;5504101;26;20029;-66
2024/04/09 10:07:06;;;;;;;8.60;2.58;;;;;;;;;;5504063;26;20318;-65
2024/04/09 10:09:46;;;;;;;7.00;2.15;;;;;;;;;;5495478;26;20034;-66
2024/04/09 10:12:20;;;;;;;12.82;2.70;;;;;;;;;;5502290;26;20036;-65
2024/04/09 10:15:03;;;;;;;9.73;2.53;;;;;;;;;;5496057;26;20026;-65
2024/04/09 10:17:52;;;;;;;7.38;2.40;;;;;;;;;;5499379;26;20041;-66
2024/04/09 10:20:20;;;;;;;10.32;3.08;;;;;;;;;;5502930;26;20034;-65
2024/04/09 10:22:47;;;;;;;8.25;2.53;;;;;;;;;;5507811;26;20378;-65
2024/04/09 10:25:15;;;;;;;12.35;2.47;;;;;;;;;;5494227;26;20046;-66
2024/04/09 10:27:43;;;;;;;7.15;1.50;;;;;;;;;;5504604;26;20030;-66
2024/04/09 10:30:13;;;;;;;5.53;1.67;;;;;;;;;;5505649;26;20089;-65
2024/04/09 10:32:41;;;;;;;7.28;1.30;;;;;;;;;;5509010;26;20037;-66
2024/04/09 10:35:10;;;;;;;5.57;1.50;;;;;;;;;;5509062;26;20368;-66
2024/04/09 10:37:38;;;;;;;4.80;2.08;;;;;;;;;;5502429;26;20049;-72
2024/04/09 10:40:06;;;;;;;13.02;2.03;;;;;;;;;;5498676;26;20020;-65
2024/04/09 10:42:33;;;;;;;5.30;1.35;;;;;;;;;;5497473;26;20013;-65
2024/04/09 10:45:00;;;;;;;5.25;1.63;;;;;;;;;;5502335;26;20359;-65
2024/04/09 10:47:28;;;;;;;4.95;1.48;;;;;;;;;;5499810;26;20024;-65
2024/04/09 10:49:56;;;;;;;9.40;1.85;;;;;;;;;;5504580;25;20025;-65
2024/04/09 10:52:24;;;;;;;4.05;0.82;;;;;;;;;;5504755;26;20061;-65
2024/04/09 10:54:51;;;;;;;7.45;1.48;;;;;;;;;;5502099;26;20001;-65
2024/04/09 10:57:19;;;;;;;7.30;1.10;;;;;;;;;;5501551;26;20383;-65
2024/04/09 10:59:47;;;;;;;3.72;1.33;;;;;;;;;;5495262;26;20054;-65
2024/04/09 11:02:16;;;;;;;3.72;1.02;;;;;;;;;;5507357;26;20315;-65
2024/04/09 11:04:44;;;;;;;5.57;1.08;;;;;;;;;;5505635;26;20349;-65
2024/04/09 11:07:12;;;;;;;6.72;1.13;;;;;;;;;;5508629;26;22495;-65
2024/04/09 11:09:40;;;;;;;5.82;1.00;;;;;;;;;;5475450;26;20311;-66
2024/04/09 11:12:07;;;;;;;5.43;1.20;;;;;;;;;;5503898;26;20024;-65
2024/04/09 11:14:35;;;;;;;6.40;1.98;;;;;;;;;;5505879;26;20005;-66
2024/04/09 11:17:02;;;;;;;3.80;0.80;;;;;;;;;;5504865;26;20001;-65
2024/04/09 11:19:32;;;;;;;4.47;1.00;;;;;;;;;;5509055;26;20338;-65
2024/04/09 11:21:59;;;;;;;5.18;1.30;;;;;;;;;;5511203;26;20029;-65
2024/04/09 11:24:27;;;;;;;5.97;1.05;;;;;;;;;;5494565;26;20062;-65
2024/04/09 11:26:54;;;;;;;5.63;1.27;;;;;;;;;;5489958;26;20049;-65
2024/04/09 11:29:22;;;;;;;7.85;1.52;;;;;;;;;;5498887;26;20913;-65
2024/04/09 11:31:50;;;;;;;4.70;1.00;;;;;;;;;;5494046;25;20468;-65
2024/04/09 11:34:25;;;;;;;4.72;1.38;;;;;;;;;;5491130;26;20073;-65
2024/04/09 11:36:53;;;;;;;7.15;1.33;;;;;;;;;;5499718;25;20024;-65
2024/04/09 11:39:22;;;;;;;6.03;1.30;;;;;;;;;;5505816;26;20026;-65
2024/04/09 11:41:50;;;;;;;6.07;1.73;;;;;;;;;;5515342;26;20037;-66
2024/04/09 11:44:25;;;;;;;6.07;1.45;;;;;;;;;;5492540;26;20006;-65
2024/04/09 11:46:52;;;;;;;8.57;1.35;;;;;;;;;;5507497;26;20011;-65
2024/04/09 11:49:20;;;;;;;5.30;1.35;;;;;;;;;;5508561;26;20396;-65
2024/04/09 11:51:47;;;;;;;7.70;1.35;;;;;;;;;;5512646;26;20025;-64
2024/04/09 11:54:15;;;;;;;6.13;1.45;;;;;;;;;;5511916;26;20029;-64
2024/04/09 11:56:42;;;;;;;9.02;1.30;;;;;;;;;;5510733;26;20029;-64
2024/04/09 11:59:10;;;;;;;3.90;1.20;;;;;;;;;;5510761;26;20041;-64
2024/04/09 12:01:37;;;;;;;5.63;1.10;;;;;;;;;;5512334;26;20034;-64
2024/04/09 12:04:05;;;;;;;5.03;1.17;;;;;;;;;;5510894;26;20060;-64
2024/04/09 12:06:32;;;;;;;9.18;1.45;;;;;;;;;;5510621;26;20038;-64
2024/04/09 12:09:00;;;;;;;4.53;1.20;;;;;;;;;;5512447;26;20052;-64
2024/04/09 12:11:27;;;;;;;7.40;1.00;;;;;;;;;;5511537;26;20185;-64
2024/04/09 12:13:55;;;;;;;5.00;0.90;;;;;;;;;;5513631;26;20001;-64
2024/04/09 12:16:23;;;;;;;5.75;1.00;;;;;;;;;;5512368;26;20045;-64
2024/04/09 12:18:51;;;;;;;3.00;0.65;;;;;;;;;;5512336;26;20029;-64
2024/04/09 12:21:20;;;;;;;3.53;1.15;;;;;;;;;;5511774;26;20033;-64
2024/04/09 12:23:47;;;;;;;4.65;1.00;;;;;;;;;;5510865;26;20029;-64
2024/04/09 12:26:14;;;;;;;4.18;1.20;;;;;;;;;;5507427;26;20477;-64
2024/04/09 12:28:42;;;;;;;6.35;1.45;;;;;;;;;;5477490;26;20015;-64
2024/04/09 12:31:09;;;;;;;6.03;1.10;;;;;;;;;;5511679;26;20001;-64
2024/04/09 12:33:37;;;;;;;5.03;1.02;;;;;;;;;;5475644;26;20039;-64
2024/04/09 12:36:04;;;;;;;4.22;1.10;;;;;;;;;;5513286;26;20049;-64
2024/04/09 12:38:32;;;;;;;6.53;0.90;;;;;;;;;;5511756;26;20041;-64
2024/04/09 12:40:59;;;;;;;5.50;1.20;;;;;;;;;;5506291;26;20028;-64
2024/04/09 12:43:27;;;;;;;4.00;0.98;;;;;;;;;;5509963;26;20366;-64
2024/04/09 12:45:54;;;;;;;5.18;1.08;;;;;;;;;;5505509;26;20360;-64
2024/04/09 12:48:22;;;;;;;4.80;1.00;;;;;;;;;;5509170;25;20508;-64
2024/04/09 12:50:49;;;;;;;6.07;1.27;;;;;;;;;;5511278;25;20029;-64
2024/04/09 12:53:17;;;;;;;2.88;1.10;;;;;;;;;;5508102;26;20029;-63
2024/04/09 12:55:46;;;;;;;3.50;1.10;;;;;;;;;;5507185;26;20029;-63
2024/04/09 12:58:13;;;;;;;3.78;1.08;;;;;;;;;;5511422;26;20120;-63
2024/04/09 13:00:41;;;;;;;5.57;1.17;;;;;;;;;;5514049;25;20036;-63
2024/04/09 13:03:08;;;;;;;7.03;1.50;;;;;;;;;;5478209;26;20012;-63
2024/04/09 13:05:36;;;;;;;4.78;1.15;;;;;;;;;;5508618;26;20049;-63
2024/04/09 13:08:06;;;;;;;7.50;1.30;;;;;;;;;;5509260;26;20030;-63
2024/04/09 13:10:34;;;;;;;4.65;1.70;;;;;;;;;;5505426;26;20038;-63
2024/04/09 13:13:01;;;;;;;6.05;1.20;;;;;;;;;;5508717;26;20033;-63
2024/04/09 13:15:29;;;;;;;5.53;1.20;;;;;;;;;;5505867;26;20035;-63
2024/04/09 13:17:56;;;;;;;8.98;1.40;;;;;;;;;;5506872;26;20029;-63
2024/04/09 13:20:24;;;;;;;5.88;1.70;;;;;;;;;;5512319;26;20011;-63
2024/04/09 13:22:52;;;;;;;4.18;1.50;;;;;;;;;;5511077;26;20448;-63
2024/04/09 13:25:20;;;;;;;6.35;1.33;;;;;;;;;;5475044;26;20441;-65
2024/04/09 13:27:47;;;;;;;7.82;2.17;;;;;;;;;;5508796;26;20028;-64
2024/04/09 13:30:15;;;;;;;6.18;1.20;;;;;;;;;;5481207;26;20001;-64
2024/04/09 13:32:42;;;;;;;4.95;1.50;;;;;;;;;;5480553;26;21939;-62
2024/04/09 13:35:09;;;;;;;4.50;1.42;;;;;;;;;;5505481;26;20001;-64
2024/04/09 13:37:40;;;;;;;4.95;1.20;;;;;;;;;;5513510;26;20045;-64
2024/04/09 13:40:08;;;;;;;3.45;1.45;;;;;;;;;;5511452;26;20061;-64
2024/04/09 13:42:43;;;;;;;5.88;1.00;;;;;;;;;;5502403;26;20013;-64
2024/04/09 13:45:11;;;;;;;6.13;1.35;;;;;;;;;;5500312;26;20005;-64
2024/04/09 13:47:38;;;;;;;6.43;1.55;;;;;;;;;;5508990;26;20041;-64
2024/04/09 13:50:06;;;;;;;6.28;1.25;;;;;;;;;;5501188;26;20041;-64
2024/04/09 13:52:35;;;;;;;8.95;1.90;;;;;;;;;;5500533;26;20104;-64
2024/04/09 13:55:02;;;;;;;6.97;1.20;;;;;;;;;;5498255;26;20005;-64
2024/04/09 13:57:30;;;;;;;8.68;2.20;;;;;;;;;;5503460;26;20036;-64
2024/04/09 13:59:58;;;;;;;5.10;1.20;;;;;;;;;;5505643;26;20037;-64
2024/04/09 14:02:25;;;;;;;5.95;0.95;;;;;;;;;;5498043;26;20015;-64
2024/04/09 14:04:53;;;;;;;6.28;1.30;;;;;;;;;;5505797;26;20077;-64
2024/04/09 14:07:20;;;;;;;10.60;1.60;;;;;;;;;;5502919;26;20344;-64
2024/04/09 14:09:47;;;;;;;5.95;1.15;;;;;;;;;;5501454;26;20468;-64
2024/04/09 14:12:15;;;;;;;3.83;1.10;;;;;;;;;;5499579;26;20019;-64
2024/04/09 14:14:42;;;;;;;4.20;1.00;;;;;;;;;;5502406;26;20014;-64
2024/04/09 14:17:11;;;;;;;2.83;1.10;;;;;;;;;;5501270;26;20002;-64
2024/04/09 14:19:38;;;;;;;5.70;1.15;;;;;;;;;;5501156;26;20023;-64
2024/04/09 14:22:08;;;;;;;3.83;1.02;;;;;;;;;;5506939;26;20002;-64
2024/04/09 14:24:37;;;;;;;4.82;1.05;;;;;;;;;;5494235;26;20002;-64
2024/04/09 14:27:04;;;;;;;5.00;1.30;;;;;;;;;;5505646;26;20041;-64
2024/04/09 14:29:33;;;;;;;6.72;1.50;;;;;;;;;;5470022;26;20485;-64
2024/04/09 14:32:00;;;;;;;5.40;1.17;;;;;;;;;;5501032;26;20033;-64
2024/04/09 14:34:28;;;;;;;3.38;1.05;;;;;;;;;;5468943;26;20012;-70
2024/04/09 14:36:55;;;;;;;5.25;1.00;;;;;;;;;;5505607;26;20033;-64